Forum - METEO

POST X METEO

Amministratore
F.ranco52 10/10/2021 ore 10:07 Quota

(nessuno) Nowcasting Domenica 10 Ottobre 2021

Buongiorno e Buona Domenica a tutti





Notizie Meteo dell'Italia da il Meteo .It


http://ilMeteo.It


la Situazione Italiana vista dal Sat









il Radar Europeo










Brindisi

METAR LIBR 100650Z 29007KT 9999 BKN010 18/15 Q1013 RERA=

METAR diBrindisi del 10alle 6,50

Vento da 290° W NW 7 nodi (12,962 km) Visibiitā 10000 m
Copertura 5-7 ottavi da 1000 piedi(304,8 m)
Temp 18°C Dew 15°C Ur 82% hPa 1013
Recente Pioggia

Brindisi

TAF LIBR 100500Z 1006/1106 33014KT 9999 SCT020 BKN050 TEMPO 1006/1009 SHRA TEMPO 1009/1020 4000 TSRA=

le TAF di Brindisi delle 5z Previsionio dalle 6z alle 6z del 11

Vento da 330° N NW 14 nodi (25,928 km) Visibilitā 10000 m
Copertura 3-4 ottavi da 2000 piedi (609,6 m)
Copertura 5-7 ottavi da 5000 piedi (1524 m )
il Tempo Varierā dalle 6z alle 9z
Rovesci di Pioggia
il Tempo Varierā dalle 9z alle 20z
Visibilitā 4000 m , Temporali di Pioggia


Gioia del Colle

METAR LIBV 100555Z 30007KT 8000 FEW008 SCT024 13/11 Q1013 RMK OVC VIS MIN 8000 WIND THR32 32007KT WIND THR14 30007KT BLU=

METAR di Gioia del Colle del 10 alle 5,55z

Vento da 300° W NW 7 nodi (12,962 km) Visibilitā 9000 m
Copertura 1-2 ottavi da 800 piedi (243,84 m)
Copertura 3-4 ottavi da 2400 piedi (731,5 m)
Temp 13°C Dew 11°C Ur 87% hPa 1013
Nuvolositā a 8 ottavi
Visibilitā Minima 8000 m

Gioia del Colle

TAF LIBV 100500Z 1006/1015 30007KT 5000 RABR SCT012 BKN035 TEMPO 1006/1011 3500 TSRA SCT006 FEW015CB BKN030=

le TAF di Gioia del Colle delle 5z Previsioni dalle 6z alle 15z

Vento da 300° W NW 7 nodi (12,962 km) Visibilitā 5000 , Pioggia , Foschia
Copertura 3-4 ottavi da 1200 piedi (365,76 m)
Copertura 5-7 ottavi da 3500 pedi (1066,8 m)
il Tempo Varierā dalle 6z alle 11z
Visibilitā 3500 m , Temporali di Piooggia
Copertura 3-4 ottavi da 600 piedi (182, 88 m)
Copertura 1-2 ottavi da 1500 piedi (1524 m) Cumulonemb
Copertura 5-7 ottavi da 3000 pied (914,4 m)
2743076
Buongiorno e Buona Domenica a tutti Notizie Meteo dell'Italia da il Meteo .It http://ilMeteo.It la Situazione Italiana vista dal...
Discussione
10/10/2021 10:07:27
none
  • mi piace
    iLikeIt
    PublicVote

Vuoi partecipare anche tu a questa discussione?

Rispondi per lasciare il tuo messaggio in questa discussione